Time;durP1;ratioP1;P1;durP2;ratioP2;P2;SDS_P1;SDS_P2;PMS_P1;PMS_P2;Temp;Humidity;BMP_temperature;BMP_pressure;BME280_temperature;BME280_humidity;BME280_pressure;Samples;Min_cycle;Max_cycle;Signal;HPM_P1;HPM_P2
2022/06/09 00:01:16;;;;;;;15.60;2.60;;;;;;;;;;5084653;28;20077;-67
2022/06/09 00:03:52;;;;;;;14.80;2.72;;;;;;;;;;5079770;28;20027;-67
2022/06/09 00:06:17;;;;;;;9.65;2.80;;;;;;;;;;5084726;28;20115;-67
2022/06/09 00:08:47;;;;;;;13.52;3.20;;;;;;;;;;5082556;28;20124;-67
2022/06/09 00:11:16;;;;;;;12.25;2.63;;;;;;;;;;5086868;28;20035;-67
2022/06/09 00:13:42;;;;;;;15.98;2.50;;;;;;;;;;5091756;28;20089;-68
2022/06/09 00:16:10;;;;;;;15.02;2.83;;;;;;;;;;5085584;28;20447;-67
2022/06/09 00:18:35;;;;;;;10.75;2.60;;;;;;;;;;5086107;28;20458;-67
2022/06/09 00:21:01;;;;;;;14.00;2.92;;;;;;;;;;5089021;28;20588;-67
2022/06/09 00:23:27;;;;;;;15.77;3.05;;;;;;;;;;5089975;28;20035;-67
2022/06/09 00:25:52;;;;;;;14.98;3.10;;;;;;;;;;5089666;28;20032;-67
2022/06/09 00:28:18;;;;;;;13.98;2.42;;;;;;;;;;5084474;28;20020;-67
2022/06/09 00:30:44;;;;;;;12.25;2.90;;;;;;;;;;5089645;28;20584;-67
2022/06/09 00:33:09;;;;;;;21.48;4.13;;;;;;;;;;5085494;28;20123;-67
2022/06/09 00:35:34;;;;;;;16.73;3.15;;;;;;;;;;5087638;28;20036;-67
2022/06/09 00:38:00;;;;;;;14.27;2.97;;;;;;;;;;5086411;28;20032;-67
2022/06/09 00:40:26;;;;;;;13.88;2.75;;;;;;;;;;5089457;28;20016;-67
2022/06/09 00:42:51;;;;;;;15.15;2.80;;;;;;;;;;5089485;28;20078;-66
2022/06/09 00:45:38;;;;;;;8.57;2.33;;;;;;;;;;5087445;28;20024;-67
2022/06/09 00:48:22;;;;;;;13.13;2.80;;;;;;;;;;5087232;28;20032;-67
2022/06/09 00:50:56;;;;;;;20.80;3.63;;;;;;;;;;5083314;28;20113;-67
2022/06/09 00:53:28;;;;;;;11.85;3.13;;;;;;;;;;5083343;28;20036;-67
2022/06/09 00:55:54;;;;;;;9.60;3.05;;;;;;;;;;5087000;28;20036;-67
2022/06/09 00:58:24;;;;;;;9.77;2.55;;;;;;;;;;5088447;28;20523;-67
2022/06/09 01:00:54;;;;;;;12.88;2.85;;;;;;;;;;5088427;28;20097;-67
2022/06/09 01:03:23;;;;;;;9.82;3.05;;;;;;;;;;5086236;28;20109;-67
2022/06/09 01:05:51;;;;;;;11.25;2.53;;;;;;;;;;5080772;28;20044;-67
2022/06/09 01:08:16;;;;;;;13.45;2.90;;;;;;;;;;5080246;28;20028;-67
2022/06/09 01:10:41;;;;;;;14.60;2.70;;;;;;;;;;5086839;28;20420;-67
2022/06/09 01:13:07;;;;;;;13.73;2.85;;;;;;;;;;5087279;28;20050;-67
2022/06/09 01:15:32;;;;;;;12.85;2.70;;;;;;;;;;5084988;28;20138;-67
2022/06/09 01:17:57;;;;;;;8.45;2.22;;;;;;;;;;5082685;28;20440;-66
2022/06/09 01:20:34;;;;;;;17.70;2.55;;;;;;;;;;5086050;28;20123;-67
2022/06/09 01:23:21;;;;;;;10.30;2.28;;;;;;;;;;5082754;28;20054;-68
2022/06/09 01:25:52;;;;;;;11.10;3.00;;;;;;;;;;5079941;28;20158;-67
2022/06/09 01:28:35;;;;;;;10.93;2.92;;;;;;;;;;5088818;28;20032;-67
2022/06/09 01:31:08;;;;;;;15.77;3.15;;;;;;;;;;5085152;28;20044;-67
2022/06/09 01:33:41;;;;;;;9.63;2.30;;;;;;;;;;5083947;28;20036;-67
2022/06/09 01:36:16;;;;;;;11.37;2.10;;;;;;;;;;5083942;28;20552;-67
2022/06/09 01:38:56;;;;;;;10.20;2.67;;;;;;;;;;5085205;28;20700;-67
2022/06/09 01:41:23;;;;;;;15.07;2.95;;;;;;;;;;5068526;28;20036;-67
2022/06/09 01:43:50;;;;;;;13.50;3.10;;;;;;;;;;5079959;28;20069;-67
2022/06/09 01:46:27;;;;;;;13.48;3.10;;;;;;;;;;5086174;28;20020;-67
2022/06/09 01:48:56;;;;;;;7.97;2.22;;;;;;;;;;5082066;28;20075;-67
2022/06/09 01:51:24;;;;;;;15.40;3.00;;;;;;;;;;5075848;28;20553;-67
2022/06/09 01:53:54;;;;;;;10.98;2.65;;;;;;;;;;5086438;28;20122;-67
2022/06/09 01:56:30;;;;;;;11.38;3.28;;;;;;;;;;5085872;28;20126;-67
2022/06/09 01:59:01;;;;;;;14.25;2.80;;;;;;;;;;5086060;28;20039;-67
2022/06/09 02:01:31;;;;;;;12.05;2.85;;;;;;;;;;5082116;28;20529;-67
2022/06/09 02:03:59;;;;;;;16.60;2.85;;;;;;;;;;5085282;28;20032;-67
2022/06/09 02:06:27;;;;;;;7.20;2.58;;;;;;;;;;5079113;28;20396;-67
2022/06/09 02:08:52;;;;;;;9.68;2.72;;;;;;;;;;5078291;28;20349;-67
2022/06/09 02:11:18;;;;;;;15.68;2.63;;;;;;;;;;5081095;28;20493;-67
2022/06/09 02:13:48;;;;;;;10.18;2.97;;;;;;;;;;5084198;28;20027;-67
2022/06/09 02:16:17;;;;;;;11.38;2.60;;;;;;;;;;5087252;28;20020;-67
2022/06/09 02:18:45;;;;;;;14.88;2.90;;;;;;;;;;5077475;28;20035;-67
2022/06/09 02:21:13;;;;;;;15.30;3.22;;;;;;;;;;5085120;28;20067;-67
2022/06/09 02:23:39;;;;;;;12.63;3.20;;;;;;;;;;5084651;28;20020;-67
2022/06/09 02:26:04;;;;;;;13.43;3.00;;;;;;;;;;5084788;28;20131;-67
2022/06/09 02:28:30;;;;;;;20.08;3.83;;;;;;;;;;5083153;28;20448;-67
2022/06/09 02:30:56;;;;;;;11.70;3.08;;;;;;;;;;5079048;28;20073;-67
2022/06/09 02:33:22;;;;;;;21.50;3.50;;;;;;;;;;5091398;28;20039;-67
2022/06/09 02:35:49;;;;;;;15.98;3.47;;;;;;;;;;5108440;28;20046;-67
2022/06/09 02:38:15;;;;;;;14.77;2.97;;;;;;;;;;5106321;28;20047;-67
2022/06/09 02:40:40;;;;;;;9.68;2.78;;;;;;;;;;5085718;28;20020;-67
2022/06/09 02:43:06;;;;;;;17.92;3.40;;;;;;;;;;5082875;28;20066;-67
2022/06/09 02:45:33;;;;;;;8.65;2.60;;;;;;;;;;5084909;28;20461;-67
2022/06/09 02:47:58;;;;;;;7.22;2.63;;;;;;;;;;5086575;28;20555;-67
2022/06/09 02:50:24;;;;;;;15.55;3.40;;;;;;;;;;5084921;28;20028;-67
2022/06/09 02:52:49;;;;;;;15.02;3.33;;;;;;;;;;5083429;28;20395;-67
2022/06/09 02:55:14;;;;;;;10.70;3.10;;;;;;;;;;5086391;28;20021;-67
2022/06/09 02:57:40;;;;;;;13.32;3.08;;;;;;;;;;5082852;28;20066;-67
2022/06/09 03:00:09;;;;;;;16.15;3.65;;;;;;;;;;5084945;28;20063;-67
2022/06/09 03:02:34;;;;;;;13.18;3.63;;;;;;;;;;5075606;28;20081;-67
2022/06/09 03:05:00;;;;;;;12.15;3.28;;;;;;;;;;5079225;28;20032;-67
2022/06/09 03:07:26;;;;;;;18.02;3.22;;;;;;;;;;5079751;28;20023;-67
2022/06/09 03:09:53;;;;;;;10.35;2.97;;;;;;;;;;5079812;28;20128;-67
2022/06/09 03:12:18;;;;;;;13.52;3.42;;;;;;;;;;5085835;28;20036;-67
2022/06/09 03:14:44;;;;;;;11.60;3.33;;;;;;;;;;5090424;28;20051;-67
2022/06/09 03:17:09;;;;;;;18.55;3.80;;;;;;;;;;5083990;28;20516;-67
2022/06/09 03:19:36;;;;;;;14.20;3.03;;;;;;;;;;5080928;28;20605;-67
2022/06/09 03:22:02;;;;;;;12.55;2.80;;;;;;;;;;5081893;28;20044;-67
2022/06/09 03:24:27;;;;;;;13.30;3.13;;;;;;;;;;5084876;28;20581;-67
2022/06/09 03:26:53;;;;;;;15.07;3.65;;;;;;;;;;5086882;28;20032;-67
2022/06/09 03:29:20;;;;;;;8.60;2.88;;;;;;;;;;5085305;28;20048;-67
2022/06/09 03:31:46;;;;;;;10.57;2.72;;;;;;;;;;5078260;28;20042;-67
2022/06/09 03:34:12;;;;;;;10.75;2.78;;;;;;;;;;5087831;28;20115;-67
2022/06/09 03:36:38;;;;;;;13.68;3.05;;;;;;;;;;5086026;28;20096;-67
2022/06/09 03:39:03;;;;;;;12.07;3.13;;;;;;;;;;5088598;28;20735;-67
2022/06/09 03:41:28;;;;;;;10.00;3.13;;;;;;;;;;5084414;28;20021;-67
2022/06/09 03:43:54;;;;;;;16.20;3.47;;;;;;;;;;5087329;28;20036;-67
2022/06/09 03:46:19;;;;;;;19.05;4.15;;;;;;;;;;5088414;28;20020;-66
2022/06/09 03:48:44;;;;;;;16.38;3.40;;;;;;;;;;5090394;28;20048;-67
2022/06/09 03:51:11;;;;;;;9.57;3.50;;;;;;;;;;5084176;28;20040;-66
2022/06/09 03:53:37;;;;;;;16.48;3.90;;;;;;;;;;5089713;28;20118;-67
2022/06/09 03:56:03;;;;;;;20.42;3.72;;;;;;;;;;5086201;28;20119;-67
2022/06/09 03:58:28;;;;;;;14.35;3.13;;;;;;;;;;5086267;28;20054;-67
2022/06/09 04:00:54;;;;;;;16.08;3.53;;;;;;;;;;5090184;28;20444;-67
2022/06/09 04:03:19;;;;;;;11.68;3.20;;;;;;;;;;5088557;28;20032;-67
2022/06/09 04:05:45;;;;;;;9.73;3.08;;;;;;;;;;5083539;28;20043;-67
2022/06/09 04:08:12;;;;;;;11.98;3.88;;;;;;;;;;5085253;28;20958;-67
2022/06/09 04:10:37;;;;;;;13.93;3.72;;;;;;;;;;5086821;28;20447;-67
2022/06/09 04:13:03;;;;;;;15.73;3.40;;;;;;;;;;5091953;28;20020;-67
2022/06/09 04:15:28;;;;;;;10.88;3.67;;;;;;;;;;5089097;28;20036;-67
2022/06/09 04:17:54;;;;;;;12.15;3.45;;;;;;;;;;5087767;28;20061;-67
2022/06/09 04:20:22;;;;;;;19.30;3.53;;;;;;;;;;5086926;28;20483;-67
2022/06/09 04:22:47;;;;;;;10.80;3.40;;;;;;;;;;5082435;28;20050;-67
2022/06/09 04:25:13;;;;;;;17.15;4.15;;;;;;;;;;5080884;28;20032;-67
2022/06/09 04:27:39;;;;;;;11.10;3.17;;;;;;;;;;5084262;28;20032;-66
2022/06/09 04:30:05;;;;;;;14.63;3.08;;;;;;;;;;5085179;28;20040;-67
2022/06/09 04:32:30;;;;;;;12.90;3.55;;;;;;;;;;5081071;28;20545;-67
2022/06/09 04:34:56;;;;;;;16.33;3.97;;;;;;;;;;5083583;28;20078;-67
2022/06/09 04:37:59;;;;;;;13.68;3.28;;;;;;;;;;5081732;28;20059;-67
2022/06/09 04:40:08;;;;;;;17.38;3.92;;;;;;;;;;5086314;28;20719;-67
2022/06/09 04:42:33;;;;;;;17.92;3.95;;;;;;;;;;5083164;28;20032;-67
2022/06/09 04:44:59;;;;;;;12.35;4.25;;;;;;;;;;5081629;28;20684;-66
2022/06/09 04:47:24;;;;;;;14.93;4.35;;;;;;;;;;5083811;28;20416;-67
2022/06/09 04:49:49;;;;;;;15.18;4.20;;;;;;;;;;5079120;28;20502;-67
2022/06/09 04:52:15;;;;;;;23.17;4.43;;;;;;;;;;5076960;28;20067;-67
2022/06/09 04:54:40;;;;;;;14.63;4.07;;;;;;;;;;5083048;28;20111;-67
2022/06/09 04:57:05;;;;;;;18.67;4.25;;;;;;;;;;5074956;28;20468;-67
2022/06/09 04:59:31;;;;;;;16.42;4.20;;;;;;;;;;5079990;28;20133;-67
2022/06/09 05:01:56;;;;;;;17.67;4.03;;;;;;;;;;5076536;28;20062;-67
2022/06/09 05:04:21;;;;;;;15.75;4.00;;;;;;;;;;5082199;28;20718;-67
2022/06/09 05:06:47;;;;;;;14.35;3.70;;;;;;;;;;5079649;28;20576;-67
2022/06/09 05:09:12;;;;;;;14.05;3.20;;;;;;;;;;5081033;28;20039;-67
2022/06/09 05:11:37;;;;;;;12.93;3.70;;;;;;;;;;5082897;28;20469;-66
2022/06/09 05:14:03;;;;;;;18.30;4.72;;;;;;;;;;5077269;28;20862;-67
2022/06/09 05:16:28;;;;;;;15.38;3.17;;;;;;;;;;5080761;28;20700;-68
2022/06/09 05:18:53;;;;;;;14.60;3.97;;;;;;;;;;5080760;28;20082;-68
2022/06/09 05:21:19;;;;;;;17.92;3.70;;;;;;;;;;5081816;28;20052;-68
2022/06/09 05:23:44;;;;;;;15.50;3.28;;;;;;;;;;5085730;28;20466;-68
2022/06/09 05:26:09;;;;;;;16.88;3.60;;;;;;;;;;5086142;28;20585;-67
2022/06/09 05:28:35;;;;;;;20.45;3.20;;;;;;;;;;5080293;28;20077;-68
2022/06/09 05:31:01;;;;;;;23.15;3.63;;;;;;;;;;5082679;28;20511;-68
2022/06/09 05:33:27;;;;;;;19.33;3.45;;;;;;;;;;5078517;28;20036;-68
2022/06/09 05:35:53;;;;;;;12.63;3.33;;;;;;;;;;5087584;28;20467;-68
2022/06/09 05:46:31;;;;;;;19.73;4.00;;;;;;;;;;5085407;28;19915;-68
2022/06/09 05:48:56;;;;;;;12.30;3.30;;;;;;;;;;5087030;28;20036;-68
2022/06/09 05:51:21;;;;;;;17.98;2.95;;;;;;;;;;5085321;28;20040;-68
2022/06/09 05:53:47;;;;;;;10.65;3.17;;;;;;;;;;5087852;28;20511;-68
2022/06/09 05:56:12;;;;;;;17.90;4.15;;;;;;;;;;5087651;28;20417;-68
2022/06/09 05:58:38;;;;;;;20.38;3.70;;;;;;;;;;5080405;28;20063;-68
2022/06/09 06:01:06;;;;;;;15.15;2.95;;;;;;;;;;5084310;28;20477;-67
2022/06/09 06:03:32;;;;;;;12.25;3.08;;;;;;;;;;5083508;28;20047;-67
2022/06/09 06:06:43;;;;;;;19.52;3.15;;;;;;;;;;5084923;28;20040;-68
2022/06/09 06:08:43;;;;;;;14.70;3.08;;;;;;;;;;5071587;28;20067;-68
2022/06/09 06:11:09;;;;;;;17.77;3.15;;;;;;;;;;5087121;28;20059;-68
2022/06/09 06:13:34;;;;;;;15.52;3.92;;;;;;;;;;5086975;28;20059;-68
2022/06/09 06:15:59;;;;;;;13.05;2.90;;;;;;;;;;5085695;28;20042;-68
2022/06/09 06:18:26;;;;;;;22.50;3.30;;;;;;;;;;5085279;28;20032;-68
2022/06/09 06:20:53;;;;;;;9.65;2.90;;;;;;;;;;5084995;28;20052;-68
2022/06/09 06:23:19;;;;;;;17.83;3.22;;;;;;;;;;5083745;28;20040;-68
2022/06/09 06:25:44;;;;;;;8.82;2.33;;;;;;;;;;5083656;28;20585;-68
2022/06/09 06:28:09;;;;;;;15.02;3.05;;;;;;;;;;5082920;28;20056;-68
2022/06/09 06:30:35;;;;;;;18.38;2.90;;;;;;;;;;5078670;28;20038;-68
2022/06/09 06:33:00;;;;;;;15.07;2.95;;;;;;;;;;5080709;28;20498;-68
2022/06/09 06:35:25;;;;;;;14.88;3.05;;;;;;;;;;5076328;28;20389;-68
2022/06/09 06:37:51;;;;;;;15.95;2.92;;;;;;;;;;5082721;28;20040;-68
2022/06/09 06:40:17;;;;;;;11.07;2.72;;;;;;;;;;5084421;28;20078;-68
2022/06/09 06:42:42;;;;;;;20.35;3.50;;;;;;;;;;5078401;28;20036;-68
2022/06/09 06:45:10;;;;;;;14.88;2.67;;;;;;;;;;5083712;28;20476;-68
2022/06/09 06:47:36;;;;;;;11.73;3.30;;;;;;;;;;5084351;28;20441;-68
2022/06/09 06:50:01;;;;;;;16.13;3.40;;;;;;;;;;5085965;28;20066;-68
2022/06/09 06:52:27;;;;;;;12.55;3.58;;;;;;;;;;5087044;28;20028;-68
2022/06/09 06:54:53;;;;;;;16.45;3.05;;;;;;;;;;5083769;28;20047;-68
2022/06/09 06:57:18;;;;;;;15.18;2.97;;;;;;;;;;5084829;28;20043;-68
2022/06/09 06:59:44;;;;;;;16.48;3.22;;;;;;;;;;5087082;28;20032;-68
2022/06/09 07:02:12;;;;;;;8.27;3.20;;;;;;;;;;5088228;28;20039;-68
2022/06/09 07:04:38;;;;;;;11.43;2.92;;;;;;;;;;5087009;28;20092;-68
2022/06/09 07:07:03;;;;;;;17.83;3.38;;;;;;;;;;5083938;28;20527;-68
2022/06/09 07:09:29;;;;;;;9.70;3.13;;;;;;;;;;5088252;28;20032;-68
2022/06/09 07:11:54;;;;;;;11.93;2.78;;;;;;;;;;5089020;28;20036;-68
2022/06/09 07:14:20;;;;;;;16.15;3.22;;;;;;;;;;5090286;28;20086;-68
2022/06/09 07:16:45;;;;;;;16.60;3.53;;;;;;;;;;5086648;28;20043;-68
2022/06/09 07:19:10;;;;;;;13.00;3.53;;;;;;;;;;5082910;28;20028;-68
2022/06/09 07:21:36;;;;;;;15.40;2.78;;;;;;;;;;5085489;28;20044;-68
2022/06/09 07:24:01;;;;;;;17.42;3.80;;;;;;;;;;5084099;28;20140;-68
2022/06/09 07:26:28;;;;;;;15.50;3.33;;;;;;;;;;5088215;28;20047;-68
2022/06/09 07:28:54;;;;;;;15.35;3.80;;;;;;;;;;5087111;28;20044;-68
2022/06/09 07:31:23;;;;;;;14.57;3.42;;;;;;;;;;5084988;28;20032;-68
2022/06/09 07:33:48;;;;;;;14.80;4.68;;;;;;;;;;5082227;28;20090;-68
2022/06/09 07:36:18;;;;;;;18.10;4.15;;;;;;;;;;5086286;28;20497;-68
2022/06/09 07:38:44;;;;;;;16.75;3.78;;;;;;;;;;5081065;28;20043;-68
2022/06/09 07:41:10;;;;;;;13.07;4.20;;;;;;;;;;5087200;28;20040;-68
2022/06/09 07:43:36;;;;;;;20.45;5.07;;;;;;;;;;5086648;28;20463;-68
2022/06/09 07:46:02;;;;;;;11.98;4.00;;;;;;;;;;5088979;28;20145;-68
2022/06/09 07:48:28;;;;;;;17.42;4.90;;;;;;;;;;5083204;28;20046;-68
2022/06/09 07:50:54;;;;;;;15.45;4.85;;;;;;;;;;5089499;28;20524;-68
2022/06/09 07:53:21;;;;;;;17.65;4.90;;;;;;;;;;5082676;28;20114;-68
2022/06/09 07:55:48;;;;;;;14.25;4.18;;;;;;;;;;5079021;28;20106;-68
2022/06/09 07:58:15;;;;;;;11.95;3.80;;;;;;;;;;5085005;28;20012;-68
2022/06/09 08:00:41;;;;;;;10.40;4.10;;;;;;;;;;5089399;28;20531;-68
2022/06/09 08:03:07;;;;;;;16.45;4.43;;;;;;;;;;5085791;28;20024;-68
2022/06/09 08:05:33;;;;;;;15.00;4.70;;;;;;;;;;5083752;28;20035;-68
2022/06/09 08:07:59;;;;;;;14.27;4.80;;;;;;;;;;5082700;28;20073;-68
2022/06/09 08:10:27;;;;;;;12.00;5.28;;;;;;;;;;5082018;28;20028;-68
2022/06/09 08:12:56;;;;;;;16.17;4.97;;;;;;;;;;5090296;28;20054;-68
2022/06/09 08:15:24;;;;;;;14.93;4.68;;;;;;;;;;5108828;27;20032;-68
2022/06/09 08:17:54;;;;;;;12.45;4.70;;;;;;;;;;5108265;28;20043;-68
2022/06/09 08:20:20;;;;;;;15.68;5.43;;;;;;;;;;5084143;28;20432;-68
2022/06/09 08:22:46;;;;;;;17.23;6.00;;;;;;;;;;5086921;28;20044;-68
2022/06/09 08:25:15;;;;;;;17.70;5.63;;;;;;;;;;5089587;28;20035;-68
2022/06/09 08:27:41;;;;;;;10.55;4.97;;;;;;;;;;5084385;28;20046;-68
2022/06/09 08:30:12;;;;;;;16.02;6.03;;;;;;;;;;5084517;28;20059;-68
2022/06/09 08:32:37;;;;;;;11.05;5.22;;;;;;;;;;5083892;28;20063;-67
2022/06/09 08:35:05;;;;;;;11.00;4.90;;;;;;;;;;5083372;28;20113;-67
2022/06/09 08:37:31;;;;;;;18.70;5.63;;;;;;;;;;5085391;28;20035;-67
2022/06/09 08:39:56;;;;;;;11.38;5.13;;;;;;;;;;5087943;28;20019;-67
2022/06/09 08:42:36;;;;;;;8.90;4.57;;;;;;;;;;5085807;28;20036;-67
2022/06/09 08:45:05;;;;;;;12.68;5.10;;;;;;;;;;5083156;28;20096;-67
2022/06/09 08:47:40;;;;;;;15.13;4.90;;;;;;;;;;5083464;28;20093;-67
2022/06/09 08:50:11;;;;;;;12.15;5.25;;;;;;;;;;5080102;28;20063;-67
2022/06/09 08:52:36;;;;;;;12.85;5.57;;;;;;;;;;5087046;28;20489;-67
2022/06/09 08:55:16;;;;;;;11.63;5.28;;;;;;;;;;5087011;28;20054;-67
2022/06/09 08:57:43;;;;;;;11.70;5.72;;;;;;;;;;5081540;28;20051;-67
2022/06/09 09:00:13;;;;;;;18.55;5.90;;;;;;;;;;5078409;28;20039;-67
2022/06/09 09:02:43;;;;;;;12.82;6.35;;;;;;;;;;5079488;28;20050;-67
2022/06/09 09:05:17;;;;;;;18.23;7.30;;;;;;;;;;5083858;28;20036;-67
2022/06/09 09:07:47;;;;;;;21.30;6.78;;;;;;;;;;5087284;28;20110;-67
2022/06/09 09:10:40;;;;;;;15.80;6.05;;;;;;;;;;5087293;28;20036;-67
2022/06/09 09:13:08;;;;;;;27.85;7.57;;;;;;;;;;5086515;28;20040;-67
2022/06/09 09:15:42;;;;;;;13.88;6.25;;;;;;;;;;5073973;28;20036;-67
2022/06/09 09:18:35;;;;;;;12.20;6.00;;;;;;;;;;5085077;28;20102;-67
2022/06/09 09:21:34;;;;;;;13.48;5.57;;;;;;;;;;5069835;28;20485;-67
2022/06/09 09:24:14;;;;;;;19.73;5.45;;;;;;;;;;5078633;28;20046;-67
2022/06/09 09:27:11;;;;;;;12.05;5.43;;;;;;;;;;5084178;28;20043;-67
2022/06/09 09:29:53;;;;;;;16.13;4.63;;;;;;;;;;5064119;28;20036;-67
2022/06/09 09:32:22;;;;;;;17.77;5.32;;;;;;;;;;5084578;28;20040;-67
2022/06/09 09:34:49;;;;;;;16.58;5.22;;;;;;;;;;5082560;28;20033;-67
2022/06/09 09:37:29;;;;;;;11.13;4.72;;;;;;;;;;5084297;28;20042;-67
2022/06/09 09:40:00;;;;;;;14.82;5.05;;;;;;;;;;5083672;28;20036;-67
2022/06/09 09:42:30;;;;;;;12.55;4.47;;;;;;;;;;5083240;28;20463;-67
2022/06/09 09:45:06;;;;;;;12.82;4.72;;;;;;;;;;5079015;28;20460;-67
2022/06/09 09:47:40;;;;;;;12.32;4.35;;;;;;;;;;5081823;28;20036;-67
2022/06/09 09:50:17;;;;;;;13.18;5.30;;;;;;;;;;5075241;28;20127;-67
2022/06/09 09:52:45;;;;;;;13.23;5.65;;;;;;;;;;5079487;28;20024;-67
2022/06/09 09:55:29;;;;;;;12.20;5.43;;;;;;;;;;5084700;28;20036;-67
2022/06/09 09:58:22;;;;;;;14.43;5.40;;;;;;;;;;5069418;28;20131;-67
2022/06/09 10:00:58;;;;;;;12.68;5.68;;;;;;;;;;5068216;28;20038;-66
2022/06/09 10:09:25;;;;;;;13.35;5.10;;;;;;;;;;5079820;28;20074;-67
2022/06/09 10:11:55;;;;;;;13.38;6.20;;;;;;;;;;5083326;28;20089;-67
2022/06/09 10:14:38;;;;;;;13.90;6.65;;;;;;;;;;5085662;28;20072;-67
2022/06/09 10:17:22;;;;;;;13.20;5.50;;;;;;;;;;5085386;28;20047;-67
2022/06/09 10:19:59;;;;;;;13.43;6.15;;;;;;;;;;5087803;28;20182;-67
2022/06/09 10:22:27;;;;;;;14.50;5.82;;;;;;;;;;5081787;28;20059;-67
2022/06/09 10:25:21;;;;;;;12.18;4.80;;;;;;;;;;5085902;28;20056;-67
2022/06/09 10:27:52;;;;;;;13.95;5.40;;;;;;;;;;5081845;28;20047;-67
2022/06/09 10:30:28;;;;;;;11.77;5.43;;;;;;;;;;5086190;28;20067;-67
2022/06/09 10:32:59;;;;;;;12.88;5.57;;;;;;;;;;5082640;28;20052;-67
2022/06/09 10:35:27;;;;;;;10.40;5.30;;;;;;;;;;5066793;28;20585;-67
2022/06/09 10:38:02;;;;;;;11.80;6.15;;;;;;;;;;5092855;28;20050;-67
2022/06/09 10:40:46;;;;;;;12.50;5.93;;;;;;;;;;5093067;28;20031;-67
2022/06/09 10:43:20;;;;;;;10.23;5.45;;;;;;;;;;5085060;28;20031;-67
2022/06/09 10:45:52;;;;;;;12.02;5.80;;;;;;;;;;5079682;28;20032;-67
2022/06/09 10:57:38;;;;;;;16.83;6.63;;;;;;;;;;5086530;28;20096;-67
2022/06/09 11:00:13;;;;;;;17.00;5.97;;;;;;;;;;5092512;28;20552;-67
2022/06/09 11:02:40;;;;;;;16.30;6.35;;;;;;;;;;5091769;28;20031;-67
2022/06/09 11:05:06;;;;;;;14.95;6.60;;;;;;;;;;5090981;28;20096;-68
2022/06/09 11:07:40;;;;;;;14.73;6.07;;;;;;;;;;5088847;28;20024;-67
2022/06/09 11:10:12;;;;;;;11.93;5.53;;;;;;;;;;5088512;28;20052;-67
2022/06/09 11:12:43;;;;;;;12.80;5.20;;;;;;;;;;5088872;28;20036;-67
2022/06/09 11:15:25;;;;;;;12.60;5.40;;;;;;;;;;5084177;28;20036;-67
2022/06/09 11:18:08;;;;;;;12.07;5.07;;;;;;;;;;5083058;28;20036;-67
2022/06/09 11:20:59;;;;;;;8.88;5.30;;;;;;;;;;5087756;28;20054;-67
2022/06/09 11:23:33;;;;;;;10.30;4.70;;;;;;;;;;5083627;28;20047;-67
2022/06/09 11:26:46;;;;;;;9.23;4.70;;;;;;;;;;5086608;28;20498;-67
2022/06/09 11:29:37;;;;;;;12.25;4.30;;;;;;;;;;5085351;28;20417;-67
2022/06/09 11:32:03;;;;;;;7.75;3.67;;;;;;;;;;5085412;28;20093;-67
2022/06/09 11:35:05;;;;;;;7.45;3.35;;;;;;;;;;5087334;28;20024;-67
2022/06/09 11:37:54;;;;;;;11.00;4.57;;;;;;;;;;5088098;28;20035;-67
2022/06/09 11:40:33;;;;;;;10.23;3.78;;;;;;;;;;5091403;28;20142;-67
2022/06/09 11:43:25;;;;;;;8.75;3.92;;;;;;;;;;5081195;28;20058;-67
2022/06/09 11:46:26;;;;;;;13.57;3.92;;;;;;;;;;5077865;28;20036;-67
2022/06/09 11:48:55;;;;;;;14.32;4.25;;;;;;;;;;5083216;28;20121;-67
2022/06/09 11:51:23;;;;;;;6.60;3.28;;;;;;;;;;5085763;28;20582;-67
2022/06/09 11:53:53;;;;;;;5.95;2.55;;;;;;;;;;5086490;28;20040;-67
2022/06/09 11:56:36;;;;;;;9.35;2.60;;;;;;;;;;5088140;28;20047;-67
2022/06/09 11:59:16;;;;;;;5.30;2.50;;;;;;;;;;5088957;28;20552;-68
2022/06/09 12:02:24;;;;;;;6.05;2.42;;;;;;;;;;5081138;28;20039;-67
2022/06/09 12:05:15;;;;;;;8.80;2.30;;;;;;;;;;5079751;28;20039;-67
2022/06/09 12:08:07;;;;;;;7.07;2.40;;;;;;;;;;5089163;28;20079;-68
2022/06/09 12:10:48;;;;;;;8.95;3.03;;;;;;;;;;5087527;28;20118;-67
2022/06/09 12:13:27;;;;;;;8.32;2.10;;;;;;;;;;5081667;28;20084;-68
2022/06/09 12:16:05;;;;;;;7.30;2.50;;;;;;;;;;5082370;28;20119;-68
2022/06/09 12:18:45;;;;;;;4.80;2.10;;;;;;;;;;5080197;28;20468;-68
2022/06/09 12:21:26;;;;;;;9.57;2.30;;;;;;;;;;5086136;28;20052;-68
2022/06/09 12:23:54;;;;;;;4.43;2.38;;;;;;;;;;5086919;28;20090;-67
2022/06/09 12:26:40;;;;;;;9.80;2.65;;;;;;;;;;5081084;28;20051;-68
2022/06/09 12:29:35;;;;;;;6.90;2.13;;;;;;;;;;5072581;28;20513;-68
2022/06/09 12:32:27;;;;;;;7.28;3.00;;;;;;;;;;5082307;28;20044;-68
2022/06/09 12:34:54;;;;;;;9.13;2.40;;;;;;;;;;5083100;28;20044;-68
2022/06/09 12:37:28;;;;;;;4.63;2.20;;;;;;;;;;5088429;28;20056;-68
2022/06/09 12:39:59;;;;;;;8.82;2.50;;;;;;;;;;5089288;28;20512;-68
2022/06/09 12:42:47;;;;;;;6.05;2.95;;;;;;;;;;5078185;28;20029;-68
2022/06/09 12:45:24;;;;;;;7.65;2.50;;;;;;;;;;5086332;28;20134;-68
2022/06/09 12:48:10;;;;;;;7.65;2.45;;;;;;;;;;5082951;28;20028;-68
2022/06/09 12:50:41;;;;;;;4.85;2.28;;;;;;;;;;5079588;28;20024;-68
2022/06/09 12:53:07;;;;;;;6.97;2.50;;;;;;;;;;5083166;28;20044;-68
2022/06/09 12:55:39;;;;;;;7.53;2.45;;;;;;;;;;5089100;28;20032;-68
2022/06/09 12:58:20;;;;;;;6.93;2.58;;;;;;;;;;5084924;28;20450;-68
2022/06/09 13:01:00;;;;;;;4.65;1.60;;;;;;;;;;5068872;28;20043;-68
2022/06/09 13:03:40;;;;;;;8.48;2.33;;;;;;;;;;5076917;28;20586;-68
2022/06/09 13:06:31;;;;;;;8.05;2.47;;;;;;;;;;5069194;28;20132;-68
2022/06/09 13:09:31;;;;;;;6.13;2.20;;;;;;;;;;5086657;28;20040;-68
2022/06/09 13:14:54;;;;;;;10.77;2.45;;;;;;;;;;5085446;28;20071;-68
2022/06/09 13:17:25;;;;;;;7.57;3.00;;;;;;;;;;5082806;28;20617;-68
2022/06/09 13:20:16;;;;;;;6.45;2.08;;;;;;;;;;5079562;28;20089;-68
2022/06/09 13:22:43;;;;;;;4.70;2.10;;;;;;;;;;5072610;28;20450;-68
2022/06/09 13:25:15;;;;;;;4.97;1.92;;;;;;;;;;5082662;28;20024;-68
2022/06/09 13:27:45;;;;;;;10.83;2.60;;;;;;;;;;5076008;28;20037;-68
2022/06/09 13:30:19;;;;;;;7.85;2.30;;;;;;;;;;5087388;28;20039;-68
2022/06/09 13:32:48;;;;;;;6.32;2.28;;;;;;;;;;5079603;28;20036;-68
2022/06/09 13:35:37;;;;;;;5.90;2.00;;;;;;;;;;5081329;28;20134;-68
2022/06/09 13:38:31;;;;;;;5.28;2.00;;;;;;;;;;5078193;28;20075;-68
2022/06/09 13:41:00;;;;;;;7.65;2.17;;;;;;;;;;5074160;28;20047;-68
2022/06/09 13:43:38;;;;;;;7.97;2.03;;;;;;;;;;5077231;28;20050;-68
2022/06/09 13:46:15;;;;;;;7.53;2.30;;;;;;;;;;5086843;28;20043;-68
2022/06/09 13:48:47;;;;;;;5.93;2.10;;;;;;;;;;5083584;28;20081;-68
2022/06/09 13:51:27;;;;;;;10.18;2.20;;;;;;;;;;5080435;28;20478;-68
2022/06/09 13:54:02;;;;;;;6.38;2.03;;;;;;;;;;5080765;28;20040;-68
2022/06/09 13:56:28;;;;;;;6.32;2.17;;;;;;;;;;5079944;28;20097;-68
2022/06/09 13:58:53;;;;;;;6.07;2.00;;;;;;;;;;5073154;28;20040;-68
2022/06/09 14:01:18;;;;;;;8.23;2.03;;;;;;;;;;5088457;28;20061;-68
2022/06/09 14:03:49;;;;;;;6.60;2.10;;;;;;;;;;5081680;28;20029;-68
2022/06/09 14:06:17;;;;;;;5.85;2.22;;;;;;;;;;5082544;28;20505;-68
2022/06/09 14:08:45;;;;;;;5.68;2.00;;;;;;;;;;5080686;28;20028;-68
2022/06/09 14:11:16;;;;;;;5.55;2.00;;;;;;;;;;5082611;28;22155;-68
2022/06/09 14:13:41;;;;;;;9.75;1.90;;;;;;;;;;5081534;28;20111;-68
2022/06/09 14:16:07;;;;;;;6.00;2.30;;;;;;;;;;5083053;28;20102;-68
2022/06/09 14:18:33;;;;;;;4.50;2.22;;;;;;;;;;5083627;28;20326;-68
2022/06/09 14:20:59;;;;;;;8.80;2.20;;;;;;;;;;5084191;28;20096;-68
2022/06/09 14:23:31;;;;;;;6.43;1.95;;;;;;;;;;5085111;28;20039;-68
2022/06/09 14:26:27;;;;;;;3.92;1.80;;;;;;;;;;5086460;28;20057;-68
2022/06/09 14:28:55;;;;;;;8.35;1.92;;;;;;;;;;5073900;28;20044;-68
2022/06/09 14:31:22;;;;;;;5.15;2.10;;;;;;;;;;5083245;28;20009;-68
2022/06/09 14:33:48;;;;;;;5.90;2.13;;;;;;;;;;5083506;28;20105;-68
2022/06/09 14:36:16;;;;;;;4.80;2.00;;;;;;;;;;5085893;28;20036;-68
2022/06/09 14:38:42;;;;;;;4.13;1.70;;;;;;;;;;5080710;28;20548;-68
2022/06/09 14:41:07;;;;;;;4.55;1.90;;;;;;;;;;5080372;28;20056;-68
2022/06/09 14:43:33;;;;;;;7.65;2.40;;;;;;;;;;5080793;28;20036;-68
2022/06/09 14:45:59;;;;;;;6.80;2.10;;;;;;;;;;5086622;28;20114;-68
2022/06/09 14:48:26;;;;;;;5.53;2.13;;;;;;;;;;5077881;28;20116;-68
2022/06/09 14:50:53;;;;;;;6.75;1.90;;;;;;;;;;5076515;28;20063;-68
2022/06/09 14:53:20;;;;;;;7.72;1.90;;;;;;;;;;5083850;28;20126;-68
2022/06/09 14:55:47;;;;;;;7.63;2.00;;;;;;;;;;5082667;28;20028;-68
2022/06/09 14:58:16;;;;;;;4.35;1.70;;;;;;;;;;5084274;28;20032;-68
2022/06/09 15:00:42;;;;;;;7.03;1.75;;;;;;;;;;5085125;28;20040;-68
2022/06/09 15:03:08;;;;;;;5.57;1.98;;;;;;;;;;5079679;28;20123;-68
2022/06/09 15:05:34;;;;;;;7.28;2.08;;;;;;;;;;5084003;28;20429;-68
2022/06/09 15:08:00;;;;;;;6.00;1.90;;;;;;;;;;5084794;28;20067;-68
2022/06/09 15:10:36;;;;;;;7.68;2.08;;;;;;;;;;5080760;28;20030;-68
2022/06/09 15:13:02;;;;;;;7.40;2.30;;;;;;;;;;5081157;28;20043;-68
2022/06/09 15:15:28;;;;;;;5.82;1.80;;;;;;;;;;5080233;28;20055;-68
2022/06/09 15:17:54;;;;;;;5.20;1.73;;;;;;;;;;5082155;28;20568;-68
2022/06/09 15:20:28;;;;;;;6.80;1.80;;;;;;;;;;5071240;28;20032;-67